LFMC 210400Z AUTO 00000KT 9999 ////// M02/M04 Q1019

ElémentsDécodage
LFMC Station météo située sur l'aérodrome de LE-LUC Le-Cannet
210400Z émis le 21 du mois à 04h00 UTC
AUTO Bulletin édité par un automate
00000KT vent nul
9999 visibilité horizontale supérieure à 10 Km
////// nébulosité (type et hauteur) non disponible
 type de nuage non observable
M02/M04 température -02°C, point de rosée -04°C
 soit une humidité relative de 86%
Q1019 la pression au niveau de la mer (QNH) est de 1019 hPa